logo
Search for airport 
image banner adimage banner adimage banner ad
image banner ad

SCLA - Tilama

Located in Los Vilos, Chile

ICAO - SCLA, IATA -

Data provided by Airmate  

General information

Coordinates: S32°4'47" W71°10'15"
Elevation is 699 feet MSL.
Magnetic variation is 1° East
View others Airports in Araucanía

Operational data

Special qualification required
Current time UTC:
Current local time:
Weather at : - ( 0 km )
METAR: KUNV 161953Z 27018KT 10SM SCT050 33/17 A2982
View NOTAMs / SUP AIP / TFR affecting this airport [VIEW]
Communications frequencies: [VIEW]

Runways:

RWY identifierQFULength (ft)Width (ft)SurfaceLDA (ft)
10107°163754DIRT
28287°163854DIRT

Airport contact information

Address: Los Vilos Chile

Satellite view of SCLA